createdAt,value
2022-08-19T00:02:10.685Z,100941.63
2022-08-19T00:04:37.949Z,100930.66
2022-08-19T00:07:07.347Z,100929.09
2022-08-19T00:09:34.682Z,100914.88
2022-08-19T00:12:02.481Z,100894.81
2022-08-19T00:14:32.316Z,100896.75
2022-08-19T00:17:00.352Z,100896.84
2022-08-19T00:19:27.852Z,100895.63
2022-08-19T00:21:57.465Z,100890.88
2022-08-19T00:24:25.183Z,100885.41
2022-08-19T00:26:53.506Z,100888.53
2022-08-19T00:29:22.112Z,100884.94
2022-08-19T00:31:50.700Z,100884.22
2022-08-19T00:34:18.299Z,100876.78
2022-08-19T00:36:46.374Z,100864.47
2022-08-19T00:39:13.878Z,100864.41
2022-08-19T00:41:41.529Z,100864.47
2022-08-19T00:44:16.021Z,100866.47
2022-08-19T00:46:55.455Z,100879.75
2022-08-19T00:49:51.636Z,100882.09
2022-08-19T00:52:30.072Z,100885.31
2022-08-19T00:54:58.865Z,100892.00
2022-08-19T00:57:42.877Z,100910.53
2022-08-19T01:00:14.421Z,100920.28
2022-08-19T01:02:42.815Z,100914.88
2022-08-19T01:05:16.893Z,100920.41
2022-08-19T01:07:44.178Z,100912.88
2022-08-19T01:10:14.903Z,100911.78
2022-08-19T01:12:42.233Z,100918.47
2022-08-19T01:15:12.067Z,100925.09
2022-08-19T01:17:40.700Z,100918.84
2022-08-19T01:20:12.399Z,100915.31
2022-08-19T01:22:49.084Z,100916.16
2022-08-19T01:25:18.944Z,100910.69
2022-08-19T01:27:50.063Z,100893.25
2022-08-19T01:30:24.926Z,100906.66
2022-08-19T01:32:52.752Z,100897.22
2022-08-19T01:35:21.117Z,100895.91
2022-08-19T01:38:00.940Z,100897.56
2022-08-19T01:40:32.436Z,100895.53
2022-08-19T01:42:59.422Z,100889.13
2022-08-19T01:45:29.046Z,100893.84
2022-08-19T01:48:02.085Z,100889.94
2022-08-19T01:50:31.619Z,100881.69
2022-08-19T01:53:02.449Z,100871.81
2022-08-19T01:55:35.864Z,100871.03
2022-08-19T01:58:13.253Z,100861.94
2022-08-19T02:00:40.702Z,100861.44
2022-08-19T02:03:07.921Z,100859.06
2022-08-19T02:05:35.348Z,100846.88
2022-08-19T02:08:02.820Z,100845.00
2022-08-19T02:10:29.935Z,100837.00
2022-08-19T02:12:57.068Z,100839.84
2022-08-19T02:15:25.666Z,100839.38
2022-08-19T02:17:52.994Z,100818.28
2022-08-19T02:20:19.993Z,100815.53
2022-08-19T02:22:47.194Z,100808.78
2022-08-19T02:25:15.523Z,100800.88
2022-08-19T02:27:43.278Z,100817.00
2022-08-19T02:30:17.020Z,100820.56
2022-08-19T02:32:45.189Z,100819.88
2022-08-19T02:35:14.450Z,100828.59
2022-08-19T02:38:03.642Z,100823.91
2022-08-19T02:40:34.836Z,100835.44
2022-08-19T02:43:10.790Z,100824.38
2022-08-19T02:45:41.572Z,100832.34
2022-08-19T02:48:21.344Z,100825.22
2022-08-19T02:50:56.020Z,100827.94
2022-08-19T02:53:25.625Z,100837.38
2022-08-19T02:55:53.259Z,100842.94
2022-08-19T02:58:21.055Z,100845.19
2022-08-19T03:00:51.210Z,100844.09
2022-08-19T03:03:19.868Z,100841.28
2022-08-19T03:05:56.015Z,100837.69
2022-08-19T03:08:24.038Z,100830.91
2022-08-19T03:10:53.092Z,100819.94
2022-08-19T03:13:20.239Z,100811.31
2022-08-19T03:15:48.650Z,100816.97
2022-08-19T03:18:16.235Z,100820.81
2022-08-19T03:20:47.353Z,100835.44
2022-08-19T03:23:16.344Z,100843.00
2022-08-19T03:26:05.622Z,100840.63
2022-08-19T03:28:36.133Z,100841.34
2022-08-19T03:31:44.940Z,100858.31
2022-08-19T03:34:04.588Z,100846.88
2022-08-19T03:36:35.419Z,100860.28
2022-08-19T03:39:03.122Z,100859.44
2022-08-19T03:41:34.365Z,100851.94
2022-08-19T03:44:12.671Z,100859.38
2022-08-19T03:46:50.755Z,100857.34
2022-08-19T03:49:18.879Z,100852.31
2022-08-19T03:51:48.492Z,100859.38
2022-08-19T03:54:17.594Z,100863.34
2022-08-19T03:56:46.478Z,100864.97
2022-08-19T03:59:18.882Z,100857.13
2022-08-19T04:01:46.777Z,100865.66
2022-08-19T04:04:13.860Z,100861.59
2022-08-19T04:06:40.935Z,100853.88
2022-08-19T04:09:10.827Z,100856.34
2022-08-19T04:11:49.400Z,100846.91
2022-08-19T04:14:20.836Z,100855.56
2022-08-19T04:16:49.587Z,100860.19
2022-08-19T04:19:18.291Z,100866.50
2022-08-19T04:21:52.421Z,100869.59
2022-08-19T04:24:20.077Z,100867.63
2022-08-19T04:26:47.967Z,100863.66
2022-08-19T04:29:17.839Z,100859.09
2022-08-19T04:31:46.263Z,100855.97
2022-08-19T04:34:16.138Z,100860.59
2022-08-19T04:36:46.021Z,100865.78
2022-08-19T04:39:16.708Z,100860.72
2022-08-19T04:42:03.860Z,100872.09
2022-08-19T04:44:33.144Z,100880.00
2022-08-19T04:47:01.542Z,100884.00
2022-08-19T04:49:29.013Z,100884.00
2022-08-19T04:51:56.747Z,100882.28
2022-08-19T04:54:36.930Z,100885.38
2022-08-19T04:57:11.148Z,100879.47
2022-08-19T04:59:39.733Z,100875.59
2022-08-19T05:02:09.708Z,100857.78
2022-08-19T05:04:40.329Z,100861.75
2022-08-19T05:07:09.289Z,100860.97
2022-08-19T05:09:57.702Z,100854.31
2022-08-19T05:12:28.736Z,100852.25
2022-08-19T05:14:58.431Z,100838.25
2022-08-19T05:17:29.476Z,100840.69
2022-08-19T05:20:17.106Z,100838.03
2022-08-19T05:22:47.814Z,100850.94
2022-08-19T05:25:20.095Z,100859.56
2022-08-19T05:27:48.436Z,100868.97
2022-08-19T05:30:16.523Z,100858.81
2022-08-19T05:32:44.242Z,100863.56
2022-08-19T05:35:12.772Z,100856.41
2022-08-19T05:37:43.732Z,100856.03
2022-08-19T05:40:11.404Z,100856.81
2022-08-19T05:42:38.873Z,100847.34
2022-08-19T05:45:07.003Z,100835.91
2022-08-19T05:47:34.204Z,100834.44
2022-08-19T05:50:05.028Z,100828.16
2022-08-19T05:52:32.679Z,100816.25
2022-08-19T05:55:00.699Z,100810.69
2022-08-19T05:57:30.210Z,100808.03
2022-08-19T05:59:59.121Z,100815.09
2022-08-19T06:02:27.628Z,100793.88
2022-08-19T06:04:54.762Z,100797.31
2022-08-19T06:07:23.079Z,100789.59
2022-08-19T06:10:00.000Z,100776.47
2022-08-19T06:12:37.790Z,100785.50
2022-08-19T06:15:14.417Z,100780.75
2022-08-19T06:17:43.158Z,100770.47
2022-08-19T06:20:14.280Z,100765.94
2022-08-19T06:22:47.472Z,100764.75
2022-08-19T06:25:15.594Z,100767.47
2022-08-19T06:30:30.661Z,100766.28
2022-08-19T06:32:57.701Z,100754.19
2022-08-19T06:35:24.971Z,100740.78
2022-08-19T06:37:53.582Z,100727.31
2022-08-19T06:40:20.951Z,100716.72
2022-08-19T06:42:54.366Z,100720.59
2022-08-19T06:45:24.941Z,100711.22
2022-08-19T06:48:02.401Z,100712.84
2022-08-19T06:50:30.561Z,100709.09
2022-08-19T06:52:57.947Z,100707.22
2022-08-19T06:55:28.383Z,100710.06
2022-08-19T06:57:55.439Z,100729.00
2022-08-19T07:00:22.572Z,100747.69
2022-08-19T07:02:55.789Z,100749.78
2022-08-19T07:05:26.919Z,100762.78
2022-08-19T07:07:54.415Z,100767.00
2022-08-19T07:10:26.269Z,100778.16
2022-08-19T07:12:53.805Z,100796.38
2022-08-19T07:15:22.236Z,100812.16
2022-08-19T07:17:52.509Z,100834.44
2022-08-19T07:20:20.648Z,100849.69
2022-08-19T07:22:48.866Z,100850.66
2022-08-19T07:25:18.166Z,100871.03
2022-08-19T07:27:46.215Z,100884.81
2022-08-19T07:30:14.493Z,100883.13
2022-08-19T07:32:41.886Z,100888.63
2022-08-19T07:35:10.322Z,100876.69
2022-08-19T07:37:39.222Z,100869.25
2022-08-19T07:40:08.521Z,100886.03
2022-08-19T07:42:35.816Z,100880.72
2022-08-19T07:45:04.153Z,100886.94
2022-08-19T07:47:48.779Z,100890.06
2022-08-19T07:50:20.318Z,100892.31
2022-08-19T07:52:50.598Z,100895.97
2022-08-19T07:55:41.817Z,100896.00
2022-08-19T07:58:10.985Z,100894.53
2022-08-19T08:00:38.858Z,100916.66
2022-08-19T08:03:06.054Z,100920.19
2022-08-19T08:05:52.227Z,100930.00
2022-08-19T08:08:44.209Z,100930.00
2022-08-19T08:11:15.697Z,100928.47
2022-08-19T08:13:43.193Z,100911.81
2022-08-19T08:16:14.414Z,100900.63
2022-08-19T08:18:43.337Z,100915.13
2022-08-19T08:21:17.425Z,100911.56
2022-08-19T08:23:44.894Z,100913.06
2022-08-19T08:26:13.982Z,100905.19
2022-08-19T08:28:43.177Z,100895.75
2022-08-19T08:31:15.574Z,100909.81
2022-08-19T08:33:43.342Z,100898.50
2022-08-19T08:36:12.378Z,100903.59
2022-08-19T08:38:40.857Z,100905.19
2022-08-19T08:41:48.624Z,100906.38
2022-08-19T08:44:23.368Z,100897.00
2022-08-19T08:46:56.724Z,100905.34
2022-08-19T08:49:29.997Z,100910.25
2022-08-19T08:52:14.666Z,100909.97
2022-08-19T08:54:48.833Z,100910.81
2022-08-19T08:57:40.810Z,100908.13
2022-08-19T09:00:15.310Z,100916.75
2022-08-19T09:02:44.519Z,100906.63
2022-08-19T09:05:16.862Z,100927.53
2022-08-19T09:08:02.038Z,100923.69
2022-08-19T09:10:44.000Z,100926.06
2022-08-19T09:13:18.378Z,100923.34
2022-08-19T09:15:52.752Z,100908.84
2022-08-19T09:18:19.987Z,100916.66
2022-08-19T09:20:48.840Z,100916.63
2022-08-19T09:23:16.915Z,100913.09
2022-08-19T09:25:44.162Z,100915.50
2022-08-19T09:28:22.155Z,100912.78
2022-08-19T09:30:53.390Z,100909.75
2022-08-19T09:33:21.151Z,100927.72
2022-08-19T09:35:53.158Z,100916.28
2022-08-19T09:38:22.140Z,100919.56
2022-08-19T09:40:50.867Z,100930.13
2022-08-19T09:43:33.553Z,100915.22
2022-08-19T09:46:10.369Z,100915.72
2022-08-19T09:48:38.187Z,100898.94
2022-08-19T09:51:16.751Z,100914.22
2022-08-19T09:53:46.396Z,100891.16
2022-08-19T09:56:14.985Z,100915.13
2022-08-19T09:58:42.818Z,100902.16
2022-08-19T10:01:11.240Z,100913.06
2022-08-19T10:03:38.501Z,100897.84
2022-08-19T10:06:14.884Z,100894.31
2022-08-19T10:08:50.116Z,100889.59
2022-08-19T10:11:28.435Z,100900.84
2022-08-19T10:14:08.969Z,100912.59
2022-08-19T10:16:40.674Z,100911.94
2022-08-19T10:19:08.915Z,100928.22
2022-08-19T10:21:37.854Z,100921.16
2022-08-19T10:24:09.526Z,100916.44
2022-08-19T10:26:42.900Z,100931.47
2022-08-19T10:29:11.547Z,100950.44
2022-08-19T10:32:01.417Z,100944.59
2022-08-19T10:34:31.445Z,100938.25
2022-08-19T10:37:01.314Z,100946.78
2022-08-19T10:39:42.998Z,100945.31
2022-08-19T10:42:14.375Z,100952.25
2022-08-19T10:44:43.082Z,100951.94
2022-08-19T10:47:17.914Z,100946.38
2022-08-19T10:50:17.540Z,100935.78
2022-08-19T10:52:49.700Z,100939.72
2022-08-19T10:55:40.228Z,100950.69
2022-08-19T10:58:23.480Z,100949.78
2022-08-19T11:00:57.743Z,100942.81
2022-08-19T11:03:35.122Z,100949.09
2022-08-19T11:06:08.998Z,100934.22
2022-08-19T11:08:39.170Z,100942.72
2022-08-19T11:11:07.905Z,100935.63
2022-08-19T11:13:38.474Z,100925.41
2022-08-19T11:16:12.367Z,100924.00
2022-08-19T11:18:43.865Z,100914.63
2022-08-19T11:21:17.961Z,100924.06
2022-08-19T11:23:46.437Z,100929.19
2022-08-19T11:26:14.722Z,100924.16
2022-08-19T11:28:42.766Z,100929.59
2022-08-19T11:31:15.775Z,100927.69
2022-08-19T11:33:47.658Z,100928.66
2022-08-19T11:36:17.440Z,100940.81
2022-08-19T11:38:46.240Z,100927.38
2022-08-19T11:41:13.528Z,100912.22
2022-08-19T11:43:41.245Z,100925.84
2022-08-19T11:46:11.268Z,100893.25
2022-08-19T11:48:39.207Z,100883.53
2022-08-19T11:51:13.143Z,100874.97
2022-08-19T11:53:41.011Z,100882.69
2022-08-19T11:56:10.385Z,100895.22
2022-08-19T11:58:37.886Z,100893.25
2022-08-19T12:01:09.965Z,100897.69
2022-08-19T12:03:37.170Z,100895.78
2022-08-19T12:06:16.486Z,100893.13
2022-08-19T12:08:45.495Z,100914.03
2022-08-19T12:11:14.683Z,100927.72
2022-08-19T12:13:47.057Z,100921.75
2022-08-19T12:16:18.705Z,100928.59
2022-08-19T12:18:49.410Z,100922.44
2022-08-19T12:21:23.183Z,100944.59
2022-08-19T12:23:55.594Z,100955.28
2022-08-19T12:26:24.634Z,100965.53
2022-08-19T12:28:52.076Z,100963.50
2022-08-19T12:31:20.785Z,100958.78
2022-08-19T12:33:48.945Z,100961.22
2022-08-19T12:36:18.662Z,100967.00
2022-08-19T12:38:46.543Z,100969.88
2022-08-19T12:41:15.601Z,100969.03
2022-08-19T12:43:43.465Z,100962.72
2022-08-19T12:46:12.181Z,100971.81
2022-08-19T12:48:43.759Z,100966.72
2022-08-19T12:51:15.727Z,100958.81
2022-08-19T12:53:44.013Z,100957.19
2022-08-19T12:56:15.645Z,100948.50
2022-08-19T12:58:48.727Z,100964.16
2022-08-19T13:01:21.954Z,100955.88
2022-08-19T13:03:51.403Z,100955.50
2022-08-19T13:06:19.044Z,100969.72
2022-08-19T13:08:47.503Z,100977.25
2022-08-19T13:11:18.595Z,100984.47
2022-08-19T13:13:48.381Z,100981.09
2022-08-19T13:16:15.806Z,100999.25
2022-08-19T13:18:45.447Z,101010.34
2022-08-19T13:21:15.839Z,101020.53
2022-08-19T13:23:43.147Z,101026.00
2022-08-19T13:26:12.674Z,101021.25
2022-08-19T13:28:59.894Z,101033.38
2022-08-19T13:31:48.712Z,101023.22
2022-08-19T13:34:21.198Z,101025.59
2022-08-19T13:36:56.634Z,101027.91
2022-08-19T13:39:24.916Z,101020.78
2022-08-19T13:41:52.361Z,101025.88
2022-08-19T13:44:20.746Z,101022.66
2022-08-19T13:46:54.095Z,101021.47
2022-08-19T13:49:21.812Z,101029.03
2022-08-19T13:51:49.057Z,101031.41
2022-08-19T13:54:16.655Z,101020.09
2022-08-19T13:56:46.150Z,101022.94
2022-08-19T13:59:17.746Z,101018.53
2022-08-19T14:01:46.234Z,101043.41
2022-08-19T14:04:13.593Z,101036.41
2022-08-19T14:06:41.490Z,101039.56
2022-08-19T14:09:09.241Z,101043.06
2022-08-19T14:11:37.186Z,101033.66
2022-08-19T14:14:05.334Z,101030.13
2022-08-19T14:16:32.775Z,101027.44
2022-08-19T14:19:00.685Z,101020.72
2022-08-19T14:21:28.801Z,101032.06
2022-08-19T14:23:55.875Z,101038.38
2022-08-19T14:26:24.139Z,101034.06
2022-08-19T14:28:53.524Z,101032.44
2022-08-19T14:31:22.476Z,101045.06
2022-08-19T14:33:51.321Z,101039.56
2022-08-19T14:36:20.837Z,101045.09
2022-08-19T14:38:49.825Z,101051.03
2022-08-19T14:41:21.432Z,101057.72
2022-08-19T14:43:51.027Z,101053.06
2022-08-19T14:46:22.079Z,101052.31
2022-08-19T14:48:52.563Z,101073.16
2022-08-19T14:51:21.671Z,101082.09
2022-08-19T14:53:49.853Z,101091.16
2022-08-19T14:56:20.913Z,101098.63
2022-08-19T14:58:48.158Z,101108.84
2022-08-19T15:01:15.398Z,101098.03
2022-08-19T15:03:42.583Z,101123.28
2022-08-19T15:06:12.591Z,101125.53
2022-08-19T15:08:42.276Z,101144.19
2022-08-19T15:11:12.479Z,101144.75
2022-08-19T15:13:40.568Z,101150.28
2022-08-19T15:16:12.260Z,101152.84
2022-08-19T15:18:47.296Z,101152.41
2022-08-19T15:21:17.892Z,101151.59
2022-08-19T15:23:55.747Z,101155.72
2022-08-19T15:26:23.205Z,101163.16
2022-08-19T15:28:50.331Z,101161.50
2022-08-19T15:31:28.096Z,101151.28
2022-08-19T15:33:58.466Z,101154.63
2022-08-19T15:36:27.095Z,101156.69
2022-08-19T15:38:56.143Z,101154.63
2022-08-19T15:41:26.779Z,101151.81
2022-08-19T15:44:10.211Z,101147.22
2022-08-19T15:46:40.768Z,101144.78
2022-08-19T15:49:09.640Z,101151.16
2022-08-19T15:51:39.209Z,101150.59
2022-08-19T15:54:09.078Z,101151.13
2022-08-19T15:56:57.970Z,101144.72
2022-08-19T15:59:47.136Z,101144.59
2022-08-19T16:02:37.914Z,101146.47
2022-08-19T16:05:30.496Z,101143.19
2022-08-19T16:07:57.906Z,101138.25
2022-08-19T16:10:27.375Z,101135.06
2022-08-19T16:12:57.399Z,101141.72
2022-08-19T16:15:28.056Z,101139.81
2022-08-19T16:17:57.239Z,101148.59
2022-08-19T16:20:27.550Z,101145.75
2022-08-19T16:22:58.233Z,101139.53
2022-08-19T16:25:28.627Z,101146.69
2022-08-19T16:28:07.037Z,101147.56
2022-08-19T16:30:37.840Z,101147.78
2022-08-19T16:33:05.638Z,101138.53
2022-08-19T16:35:32.876Z,101144.16
2022-08-19T16:38:02.516Z,101134.91
2022-08-19T16:40:30.067Z,101132.19
2022-08-19T16:42:57.166Z,101133.78
2022-08-19T16:45:24.735Z,101133.84
2022-08-19T16:47:52.269Z,101126.72
2022-08-19T16:50:25.386Z,101135.81
2022-08-19T16:53:01.218Z,101117.75
2022-08-19T16:55:30.831Z,101116.63
2022-08-19T16:57:57.882Z,101118.66
2022-08-19T17:00:24.996Z,101119.06
2022-08-19T17:02:52.812Z,101118.31
2022-08-19T17:05:19.901Z,101117.97
2022-08-19T17:07:47.057Z,101123.47
2022-08-19T17:10:15.180Z,101130.16
2022-08-19T17:12:42.918Z,101128.19
2022-08-19T17:15:09.951Z,101130.22
2022-08-19T17:17:37.418Z,101133.00
2022-08-19T17:20:06.872Z,101132.59
2022-08-19T17:22:36.848Z,101135.78
2022-08-19T17:25:04.941Z,101128.69
2022-08-19T17:27:32.399Z,101132.66
2022-08-19T17:30:05.204Z,101133.03
2022-08-19T17:32:35.133Z,101125.56
2022-08-19T17:35:04.194Z,101127.13
2022-08-19T17:37:31.332Z,101127.53
2022-08-19T17:39:58.583Z,101133.03
2022-08-19T17:42:26.540Z,101130.25
2022-08-19T17:44:53.764Z,101122.38
2022-08-19T17:47:21.233Z,101112.13
2022-08-19T17:49:48.572Z,101104.63
2022-08-19T17:52:16.366Z,101104.25
2022-08-19T17:54:46.562Z,101102.25
2022-08-19T17:57:14.454Z,101105.78
2022-08-19T17:59:41.525Z,101097.13
2022-08-19T18:02:10.823Z,101094.75
2022-08-19T18:04:38.858Z,101090.03
2022-08-19T18:07:06.621Z,101092.38
2022-08-19T18:09:41.619Z,101087.63
2022-08-19T18:12:12.646Z,101089.97
2022-08-19T18:14:40.507Z,101089.97
2022-08-19T18:17:12.762Z,101082.03
2022-08-19T18:19:43.264Z,101101.72
2022-08-19T18:22:22.526Z,101093.03
2022-08-19T18:24:49.991Z,101094.22
2022-08-19T18:27:17.145Z,101090.63
2022-08-19T18:29:45.094Z,101098.88
2022-08-19T18:32:12.986Z,101089.78
2022-08-19T18:34:43.006Z,101101.94
2022-08-19T18:37:10.999Z,101104.69
2022-08-19T18:39:57.150Z,101099.53
2022-08-19T18:42:43.259Z,101107.31
2022-08-19T18:45:30.291Z,101096.28
2022-08-19T18:48:24.237Z,101091.91
2022-08-19T18:50:57.149Z,101086.72
2022-08-19T18:53:27.398Z,101094.50
2022-08-19T18:55:55.436Z,101096.78
2022-08-19T18:58:34.271Z,101094.38
2022-08-19T19:01:11.751Z,101091.59
2022-08-19T19:03:45.227Z,101094.69
2022-08-19T19:06:19.830Z,101086.34
2022-08-19T19:08:48.313Z,101077.56
2022-08-19T19:11:21.478Z,101054.63
2022-08-19T19:13:49.744Z,101042.41
2022-08-19T19:16:22.441Z,101050.66
2022-08-19T19:18:52.622Z,101047.91
2022-08-19T19:21:23.085Z,101059.28
2022-08-19T19:23:51.780Z,101052.53
2022-08-19T19:26:19.255Z,101050.00
2022-08-19T19:28:47.833Z,101046.13
2022-08-19T19:31:23.013Z,101044.16
2022-08-19T19:33:50.894Z,101038.63
2022-08-19T19:36:18.070Z,101036.69
2022-08-19T19:38:48.619Z,101031.03
2022-08-19T19:41:24.725Z,101026.22
2022-08-19T19:44:29.909Z,101023.78
2022-08-19T19:46:45.764Z,101016.16
2022-08-19T19:49:13.672Z,101020.16
2022-08-19T19:51:41.556Z,101027.19
2022-08-19T19:54:15.425Z,101032.72
2022-08-19T19:56:50.630Z,101043.28
2022-08-19T19:59:18.520Z,101049.53
2022-08-19T20:01:48.433Z,101054.25
2022-08-19T20:04:17.008Z,101052.63
2022-08-19T20:06:46.082Z,101047.84
2022-08-19T20:09:19.488Z,101056.06
2022-08-19T20:11:53.983Z,101070.94
2022-08-19T20:14:27.213Z,101073.19
2022-08-19T20:16:56.436Z,101064.66
2022-08-19T20:19:27.701Z,101051.16
2022-08-19T20:21:55.860Z,101033.88
2022-08-19T20:24:26.999Z,101040.88
2022-08-19T20:26:54.792Z,101030.25
2022-08-19T20:29:39.208Z,101029.88
2022-08-19T20:32:10.158Z,101022.91
2022-08-19T20:34:38.004Z,101026.38
2022-08-19T20:37:05.293Z,101018.16
2022-08-19T20:39:32.405Z,101019.31
2022-08-19T20:42:01.174Z,101017.34
2022-08-19T20:44:28.290Z,101022.41
2022-08-19T20:46:58.418Z,101027.84
2022-08-19T20:49:27.714Z,101029.78
2022-08-19T20:51:56.946Z,101029.31
2022-08-19T20:54:25.014Z,101026.91
2022-08-19T20:57:04.101Z,101012.34
2022-08-19T20:59:31.506Z,101005.19
2022-08-19T21:01:58.857Z,101008.31
2022-08-19T21:04:28.532Z,101014.63
2022-08-19T21:06:56.065Z,101020.84
2022-08-19T21:09:23.375Z,101017.38
2022-08-19T21:11:50.855Z,101020.50
2022-08-19T21:14:18.101Z,101022.44
2022-08-19T21:16:45.434Z,101032.66
2022-08-19T21:19:13.025Z,101022.00
2022-08-19T21:21:40.377Z,101021.16
2022-08-19T21:24:08.029Z,101007.75
2022-08-19T21:26:35.241Z,101007.75
2022-08-19T21:29:02.401Z,101005.03
2022-08-19T21:31:29.629Z,101001.13
2022-08-19T21:33:56.839Z,100998.03
2022-08-19T21:36:24.284Z,100993.78
2022-08-19T21:38:51.782Z,100994.22
2022-08-19T21:41:19.059Z,100992.72
2022-08-19T21:43:46.304Z,101005.28
2022-08-19T21:46:13.369Z,101005.28
2022-08-19T21:48:40.406Z,101010.34
2022-08-19T21:51:08.682Z,101016.63
2022-08-19T21:53:35.902Z,101027.19
2022-08-19T21:56:04.222Z,101023.72
2022-08-19T21:58:31.346Z,101018.13
2022-08-19T22:01:06.124Z,101016.69
2022-08-19T22:03:35.851Z,101030.88
2022-08-19T22:06:03.142Z,101026.63
2022-08-19T22:08:31.696Z,101028.28
2022-08-19T22:11:01.657Z,101038.84
2022-08-19T22:13:30.876Z,101034.47
2022-08-19T22:15:57.937Z,101038.50
2022-08-19T22:18:24.993Z,101042.38
2022-08-19T22:20:52.032Z,101038.94
2022-08-19T22:23:19.146Z,101038.13
2022-08-19T22:25:46.983Z,101042.78
2022-08-19T22:28:19.119Z,101035.38
2022-08-19T22:30:54.737Z,101042.03
2022-08-19T22:33:22.629Z,101037.66
2022-08-19T22:35:51.949Z,101043.59
2022-08-19T22:38:19.391Z,101047.91
2022-08-19T22:40:48.560Z,101042.38
2022-08-19T22:43:22.510Z,101034.94
2022-08-19T22:45:51.344Z,101038.84
2022-08-19T22:48:20.895Z,101040.06
2022-08-19T22:51:07.683Z,101039.63
2022-08-19T22:53:37.137Z,101039.19
2022-08-19T22:56:06.209Z,101043.16
2022-08-19T22:58:33.421Z,101038.41
2022-08-19T23:01:00.573Z,101039.47
2022-08-19T23:03:27.654Z,101044.22
2022-08-19T23:05:56.194Z,101046.63
2022-08-19T23:08:23.563Z,101034.34
2022-08-19T23:10:50.742Z,101029.94
2022-08-19T23:13:18.759Z,101033.47
2022-08-19T23:15:47.018Z,101032.25
2022-08-19T23:18:14.892Z,101021.63
2022-08-19T23:20:43.235Z,101019.44
2022-08-19T23:23:13.321Z,101011.19
2022-08-19T23:25:40.633Z,101016.38
2022-08-19T23:28:26.366Z,101010.09
2022-08-19T23:30:53.729Z,101012.78
2022-08-19T23:33:51.119Z,101011.00
2022-08-19T23:36:19.775Z,101005.94
2022-08-19T23:38:49.006Z,101007.34
2022-08-19T23:41:18.255Z,101001.38
2022-08-19T23:43:45.669Z,101008.41
2022-08-19T23:46:27.558Z,100996.63
2022-08-19T23:48:57.035Z,100984.72
2022-08-19T23:51:26.507Z,100984.56
2022-08-19T23:53:54.135Z,100969.03
2022-08-19T23:56:21.590Z,100978.91
2022-08-19T23:58:49.415Z,100984.84
